<?xml version="1.0" encoding="UTF-8" standalone="no" ?>
<gpx xmlns="http://www.topografix.com/GPX/1/1" xmlns:xsi="http://www.w3.org/2001/XMLSchema-instance" xsi:schemaLocation="http://www.topografix.com/GPX/1/1 http://www.topografix.com/GPX/1/1/gpx.xsd" version="1.1" creator="VisuGPX - https://www.visugpx.com">
  <metadata>
    <name>Week-End Igloo</name>
    <desc><![CDATA[week-end igloo]]></desc>
  </metadata>
  <trk>
    <name><![CDATA[Bareilles-Artiguelongues]]></name>
    <trkseg>
      <trkpt lat="42.8923" lon="0.42976">
        <ele>1116.2280273</ele>
        <time>2010-02-28T14:22:07Z</time>
      </trkpt>
      <trkpt lat="42.89234" lon="0.42973">
        <ele>1124.3991699</ele>
        <time>2010-02-28T14:19:05Z</time>
      </trkpt>
      <trkpt lat="42.89194" lon="0.42965">
        <ele>1124.3991699</ele>
        <time>2010-02-28T14:16:15Z</time>
      </trkpt>
      <trkpt lat="42.89149" lon="0.43005">
        <ele>1134.4931641</ele>
        <time>2010-02-28T14:15:22Z</time>
      </trkpt>
      <trkpt lat="42.89056" lon="0.43379">
        <ele>1170.0617676</ele>
        <time>2010-02-28T14:11:15Z</time>
      </trkpt>
      <trkpt lat="42.89053" lon="0.43427">
        <ele>1174.3876953</ele>
        <time>2010-02-28T14:10:45Z</time>
      </trkpt>
      <trkpt lat="42.8907" lon="0.43478">
        <ele>1178.713623</ele>
        <time>2010-02-28T14:10:14Z</time>
      </trkpt>
      <trkpt lat="42.89062" lon="0.43519">
        <ele>1182.0783691</ele>
        <time>2010-02-28T14:09:42Z</time>
      </trkpt>
      <trkpt lat="42.89032" lon="0.43453">
        <ele>1183.5202637</ele>
        <time>2010-02-28T14:08:51Z</time>
      </trkpt>
      <trkpt lat="42.8897" lon="0.43369">
        <ele>1190.7299805</ele>
        <time>2010-02-28T14:07:34Z</time>
      </trkpt>
      <trkpt lat="42.88963" lon="0.43374">
        <ele>1195.0559082</ele>
        <time>2010-02-28T14:07:11Z</time>
      </trkpt>
      <trkpt lat="42.8894" lon="0.43409">
        <ele>1201.3046875</ele>
        <time>2010-02-28T14:06:42Z</time>
      </trkpt>
      <trkpt lat="42.88937" lon="0.43408">
        <ele>1203.7080078</ele>
        <time>2010-02-28T14:06:28Z</time>
      </trkpt>
      <trkpt lat="42.8897" lon="0.43537">
        <ele>1212.8405762</ele>
        <time>2010-02-28T14:05:05Z</time>
      </trkpt>
      <trkpt lat="42.88956" lon="0.43609">
        <ele>1218.6083984</ele>
        <time>2010-02-28T14:04:22Z</time>
      </trkpt>
      <trkpt lat="42.88946" lon="0.43588">
        <ele>1222.4536133</ele>
        <time>2010-02-28T14:03:58Z</time>
      </trkpt>
      <trkpt lat="42.88927" lon="0.4358">
        <ele>1226.2988281</ele>
        <time>2010-02-28T14:03:33Z</time>
      </trkpt>
      <trkpt lat="42.88965" lon="0.43774">
        <ele>1240.7185059</ele>
        <time>2010-02-28T14:01:26Z</time>
      </trkpt>
      <trkpt lat="42.88955" lon="0.43825">
        <ele>1257.0610352</ele>
        <time>2010-02-28T13:59:58Z</time>
      </trkpt>
      <trkpt lat="42.88955" lon="0.43867">
        <ele>1250.8125</ele>
        <time>2010-02-28T13:59:26Z</time>
      </trkpt>
      <trkpt lat="42.88942" lon="0.4391">
        <ele>1259.9448242</ele>
        <time>2010-02-28T13:58:02Z</time>
      </trkpt>
      <trkpt lat="42.88941" lon="0.43911">
        <ele>1250.3320313</ele>
        <time>2010-02-28T13:58:01Z</time>
      </trkpt>
      <trkpt lat="42.88946" lon="0.43924">
        <ele>1276.7683105</ele>
        <time>2010-02-28T13:57:47Z</time>
      </trkpt>
      <trkpt lat="42.88962" lon="0.43951">
        <ele>1263.3098145</ele>
        <time>2010-02-28T13:55:25Z</time>
      </trkpt>
      <trkpt lat="42.88962" lon="0.43951">
        <ele>1260.9064941</ele>
        <time>2010-02-28T13:55:23Z</time>
      </trkpt>
      <trkpt lat="42.88962" lon="0.4395">
        <ele>1253.2158203</ele>
        <time>2010-02-28T13:55:21Z</time>
      </trkpt>
      <trkpt lat="42.88962" lon="0.43951">
        <ele>1256.5803223</ele>
        <time>2010-02-28T13:55:20Z</time>
      </trkpt>
      <trkpt lat="42.88956" lon="0.43992">
        <ele>1262.8291016</ele>
        <time>2010-02-28T13:54:51Z</time>
      </trkpt>
      <trkpt lat="42.88931" lon="0.44051">
        <ele>1266.1936035</ele>
        <time>2010-02-28T13:54:08Z</time>
      </trkpt>
      <trkpt lat="42.88938" lon="0.44111">
        <ele>1270.5195313</ele>
        <time>2010-02-28T13:53:23Z</time>
      </trkpt>
      <trkpt lat="42.88898" lon="0.44166">
        <ele>1277.2490234</ele>
        <time>2010-02-28T13:52:26Z</time>
      </trkpt>
      <trkpt lat="42.88817" lon="0.44202">
        <ele>1283.0166016</ele>
        <time>2010-02-28T13:51:14Z</time>
      </trkpt>
      <trkpt lat="42.88771" lon="0.44313">
        <ele>1295.9946289</ele>
        <time>2010-02-28T13:49:26Z</time>
      </trkpt>
      <trkpt lat="42.88734" lon="0.44401">
        <ele>1303.2043457</ele>
        <time>2010-02-28T13:48:18Z</time>
      </trkpt>
      <trkpt lat="42.887" lon="0.44438">
        <ele>1307.0495605</ele>
        <time>2010-02-28T13:47:40Z</time>
      </trkpt>
      <trkpt lat="42.88695" lon="0.44515">
        <ele>1311.8564453</ele>
        <time>2010-02-28T13:46:07Z</time>
      </trkpt>
      <trkpt lat="42.88675" lon="0.44527">
        <ele>1307.0495605</ele>
        <time>2010-02-28T13:45:37Z</time>
      </trkpt>
      <trkpt lat="42.88651" lon="0.44702">
        <ele>1309.453125</ele>
        <time>2010-02-28T13:40:45Z</time>
      </trkpt>
      <trkpt lat="42.88629" lon="0.44712">
        <ele>1308.4916992</ele>
        <time>2010-02-28T13:40:29Z</time>
      </trkpt>
      <trkpt lat="42.88541" lon="0.44871">
        <ele>1321.4692383</ele>
        <time>2010-02-28T13:37:06Z</time>
      </trkpt>
      <trkpt lat="42.88489" lon="0.45019">
        <ele>1352.7121582</ele>
        <time>2010-02-28T13:35:14Z</time>
      </trkpt>
      <trkpt lat="42.88369" lon="0.45165">
        <ele>1345.9831543</ele>
        <time>2010-02-28T13:23:06Z</time>
      </trkpt>
      <trkpt lat="42.88289" lon="0.45293">
        <ele>1353.673584</ele>
        <time>2010-02-28T13:20:46Z</time>
      </trkpt>
      <trkpt lat="42.88243" lon="0.45432">
        <ele>1368.0932617</ele>
        <time>2010-02-28T13:18:21Z</time>
      </trkpt>
      <trkpt lat="42.88148" lon="0.45524">
        <ele>1380.5905762</ele>
        <time>2010-02-28T13:13:47Z</time>
      </trkpt>
      <trkpt lat="42.88046" lon="0.4559">
        <ele>1389.7231445</ele>
        <time>2010-02-28T13:10:10Z</time>
      </trkpt>
      <trkpt lat="42.88028" lon="0.45606">
        <ele>1389.2424316</ele>
        <time>2010-02-28T13:09:37Z</time>
      </trkpt>
      <trkpt lat="42.87954" lon="0.45628">
        <ele>1393.0876465</ele>
        <time>2010-02-28T13:07:37Z</time>
      </trkpt>
      <trkpt lat="42.87833" lon="0.45631">
        <ele>1420.9660645</ele>
        <time>2010-02-28T13:03:18Z</time>
      </trkpt>
      <trkpt lat="42.87792" lon="0.4564">
        <ele>1414.2365723</ele>
        <time>2010-02-28T13:01:19Z</time>
      </trkpt>
      <trkpt lat="42.87675" lon="0.45689">
        <ele>1423.8498535</ele>
        <time>2010-02-28T12:57:45Z</time>
      </trkpt>
      <trkpt lat="42.87552" lon="0.45657">
        <ele>1444.0375977</ele>
        <time>2010-02-28T12:54:30Z</time>
      </trkpt>
      <trkpt lat="42.87537" lon="0.45676">
        <ele>1447.4020996</ele>
        <time>2010-02-28T12:54:14Z</time>
      </trkpt>
      <trkpt lat="42.87479" lon="0.45664">
        <ele>1466.1477051</ele>
        <time>2010-02-28T12:52:54Z</time>
      </trkpt>
      <trkpt lat="42.87412" lon="0.45651">
        <ele>1473.8383789</ele>
        <time>2010-02-28T12:51:44Z</time>
      </trkpt>
      <trkpt lat="42.87371" lon="0.45663">
        <ele>1479.1254883</ele>
        <time>2010-02-28T12:50:54Z</time>
      </trkpt>
      <trkpt lat="42.87312" lon="0.45673">
        <ele>1483.9321289</ele>
        <time>2010-02-28T12:49:50Z</time>
      </trkpt>
      <trkpt lat="42.87211" lon="0.45744">
        <ele>1491.6228027</ele>
        <time>2010-02-28T12:47:51Z</time>
      </trkpt>
      <trkpt lat="42.87125" lon="0.45834">
        <ele>1512.2910156</ele>
        <time>2010-02-28T12:45:53Z</time>
      </trkpt>
      <trkpt lat="42.87125" lon="0.45834">
        <ele>1512.2910156</ele>
        <time>2010-02-28T12:45:35Z</time>
      </trkpt>
      <trkpt lat="42.87125" lon="0.45834">
        <ele>1500.2749023</ele>
        <time>2010-02-28T12:45:34Z</time>
      </trkpt>
      <trkpt lat="42.87128" lon="0.45833">
        <ele>1503.6394043</ele>
        <time>2010-02-28T12:44:40Z</time>
      </trkpt>
      <trkpt lat="42.87097" lon="0.45884">
        <ele>1509.8876953</ele>
        <time>2010-02-28T12:43:47Z</time>
      </trkpt>
      <trkpt lat="42.87097" lon="0.45886">
        <ele>1506.5231934</ele>
        <time>2010-02-28T12:43:46Z</time>
      </trkpt>
      <trkpt lat="42.87076" lon="0.45915">
        <ele>1511.8105469</ele>
        <time>2010-02-28T12:42:57Z</time>
      </trkpt>
      <trkpt lat="42.87019" lon="0.46018">
        <ele>1521.9042969</ele>
        <time>2010-02-28T12:31:57Z</time>
      </trkpt>
      <trkpt lat="42.87017" lon="0.4602">
        <ele>1528.152832</ele>
        <time>2010-02-28T12:31:51Z</time>
      </trkpt>
      <trkpt lat="42.87015" lon="0.46021">
        <ele>1522.3850098</ele>
        <time>2010-02-28T12:31:50Z</time>
      </trkpt>
      <trkpt lat="42.87006" lon="0.46031">
        <ele>1527.1916504</ele>
        <time>2010-02-28T12:31:41Z</time>
      </trkpt>
      <trkpt lat="42.86969" lon="0.46061">
        <ele>1534.4016113</ele>
        <time>2010-02-28T12:30:31Z</time>
      </trkpt>
      <trkpt lat="42.86937" lon="0.46092">
        <ele>1542.092041</ele>
        <time>2010-02-28T12:29:56Z</time>
      </trkpt>
      <trkpt lat="42.86916" lon="0.46106">
        <ele>1559.395752</ele>
        <time>2010-02-28T12:29:32Z</time>
      </trkpt>
      <trkpt lat="42.86901" lon="0.46122">
        <ele>1556.9924316</ele>
        <time>2010-02-28T12:28:14Z</time>
      </trkpt>
      <trkpt lat="42.86797" lon="0.4614">
        <ele>1578.6220703</ele>
        <time>2010-02-28T12:26:23Z</time>
      </trkpt>
      <trkpt lat="42.86707" lon="0.46187">
        <ele>1587.2739258</ele>
        <time>2010-02-28T12:21:01Z</time>
      </trkpt>
      <trkpt lat="42.86677" lon="0.46173">
        <ele>1597.8486328</ele>
        <time>2010-02-28T12:19:56Z</time>
      </trkpt>
      <trkpt lat="42.86618" lon="0.46169">
        <ele>1609.3842773</ele>
        <time>2010-02-28T12:18:22Z</time>
      </trkpt>
      <trkpt lat="42.86568" lon="0.462">
        <ele>1604.097168</ele>
        <time>2010-02-28T12:16:43Z</time>
      </trkpt>
      <trkpt lat="42.86569" lon="0.46199">
        <ele>1600.2519531</ele>
        <time>2010-02-28T12:16:38Z</time>
      </trkpt>
      <trkpt lat="42.8657" lon="0.462">
        <ele>1603.6164551</ele>
        <time>2010-02-28T12:16:34Z</time>
      </trkpt>
      <trkpt lat="42.86562" lon="0.46232">
        <ele>1603.6164551</ele>
        <time>2010-02-28T12:14:11Z</time>
      </trkpt>
      <trkpt lat="42.86559" lon="0.46239">
        <ele>1617.5554199</ele>
        <time>2010-02-28T12:13:21Z</time>
      </trkpt>
      <trkpt lat="42.86506" lon="0.46411">
        <ele>1627.1687012</ele>
        <time>2010-02-28T12:08:30Z</time>
      </trkpt>
      <trkpt lat="42.86465" lon="0.46412">
        <ele>1638.223877</ele>
        <time>2010-02-28T12:07:42Z</time>
      </trkpt>
      <trkpt lat="42.86437" lon="0.46413">
        <ele>1638.223877</ele>
        <time>2010-02-28T12:07:19Z</time>
      </trkpt>
      <trkpt lat="42.86432" lon="0.46411">
        <ele>1640.6269531</ele>
        <time>2010-02-28T12:07:14Z</time>
      </trkpt>
      <trkpt lat="42.86382" lon="0.46421">
        <ele>1653.6049805</ele>
        <time>2010-02-28T12:03:41Z</time>
      </trkpt>
      <trkpt lat="42.86362" lon="0.46389">
        <ele>1678.1186523</ele>
        <time>2010-02-28T12:02:31Z</time>
      </trkpt>
      <trkpt lat="42.86362" lon="0.46388">
        <ele>1658.8920898</ele>
        <time>2010-02-28T12:02:29Z</time>
      </trkpt>
      <trkpt lat="42.86362" lon="0.46388">
        <ele>1640.1464844</ele>
        <time>2010-02-28T12:02:28Z</time>
      </trkpt>
      <trkpt lat="42.8636" lon="0.46388">
        <ele>1663.6987305</ele>
        <time>2010-02-28T12:02:17Z</time>
      </trkpt>
      <trkpt lat="42.86353" lon="0.46377">
        <ele>1668.986084</ele>
        <time>2010-02-28T12:01:49Z</time>
      </trkpt>
      <trkpt lat="42.86338" lon="0.46381">
        <ele>1679.079834</ele>
        <time>2010-02-28T12:00:44Z</time>
      </trkpt>
      <trkpt lat="42.86336" lon="0.46382">
        <ele>1675.7150879</ele>
        <time>2010-02-28T12:00:42Z</time>
      </trkpt>
      <trkpt lat="42.86323" lon="0.46351">
        <ele>1684.3671875</ele>
        <time>2010-02-28T11:59:38Z</time>
      </trkpt>
      <trkpt lat="42.86317" lon="0.46346">
        <ele>1683.4057617</ele>
        <time>2010-02-28T11:59:10Z</time>
      </trkpt>
      <trkpt lat="42.86258" lon="0.46326">
        <ele>1702.6320801</ele>
        <time>2010-02-28T11:55:07Z</time>
      </trkpt>
      <trkpt lat="42.86247" lon="0.46312">
        <ele>1714.1679688</ele>
        <time>2010-02-28T11:54:43Z</time>
      </trkpt>
      <trkpt lat="42.86245" lon="0.46313">
        <ele>1709.842041</ele>
        <time>2010-02-28T11:54:39Z</time>
      </trkpt>
      <trkpt lat="42.86234" lon="0.46288">
        <ele>1726.6652832</ele>
        <time>2010-02-28T11:53:50Z</time>
      </trkpt>
      <trkpt lat="42.86231" lon="0.46278">
        <ele>1730.0297852</ele>
        <time>2010-02-28T11:53:14Z</time>
      </trkpt>
      <trkpt lat="42.86204" lon="0.46264">
        <ele>1749.7368164</ele>
        <time>2010-02-28T11:51:24Z</time>
      </trkpt>
      <trkpt lat="42.86197" lon="0.46257">
        <ele>1749.2561035</ele>
        <time>2010-02-28T11:50:57Z</time>
      </trkpt>
      <trkpt lat="42.86198" lon="0.46256">
        <ele>1753.1013184</ele>
        <time>2010-02-28T11:50:56Z</time>
      </trkpt>
      <trkpt lat="42.86198" lon="0.46255">
        <ele>1748.2946777</ele>
        <time>2010-02-28T11:50:55Z</time>
      </trkpt>
      <trkpt lat="42.86206" lon="0.4625">
        <ele>1757.9082031</ele>
        <time>2010-02-28T11:50:13Z</time>
      </trkpt>
      <trkpt lat="42.86169" lon="0.46219">
        <ele>1768.001709</ele>
        <time>2010-02-28T11:48:19Z</time>
      </trkpt>
      <trkpt lat="42.86144" lon="0.46177">
        <ele>1764.637207</ele>
        <time>2010-02-28T11:47:22Z</time>
      </trkpt>
      <trkpt lat="42.86142" lon="0.46133">
        <ele>1769.9243164</ele>
        <time>2010-02-28T11:46:20Z</time>
      </trkpt>
      <trkpt lat="42.86143" lon="0.46132">
        <ele>1748.2946777</ele>
        <time>2010-02-28T11:46:19Z</time>
      </trkpt>
      <trkpt lat="42.86142" lon="0.4613">
        <ele>1764.1564941</ele>
        <time>2010-02-28T11:46:12Z</time>
      </trkpt>
      <trkpt lat="42.86136" lon="0.46116">
        <ele>1756.9467773</ele>
        <time>2010-02-28T11:45:55Z</time>
      </trkpt>
      <trkpt lat="42.86138" lon="0.46115">
        <ele>1760.7919922</ele>
        <time>2010-02-28T11:45:52Z</time>
      </trkpt>
      <trkpt lat="42.86145" lon="0.46098">
        <ele>1757.4274902</ele>
        <time>2010-02-28T11:45:37Z</time>
      </trkpt>
      <trkpt lat="42.8616" lon="0.46078">
        <ele>1759.3500977</ele>
        <time>2010-02-28T11:43:19Z</time>
      </trkpt>
      <trkpt lat="42.86164" lon="0.46047">
        <ele>1758.3886719</ele>
        <time>2010-02-28T11:42:21Z</time>
      </trkpt>
      <trkpt lat="42.86164" lon="0.46045">
        <ele>1762.2338867</ele>
        <time>2010-02-28T11:42:17Z</time>
      </trkpt>
      <trkpt lat="42.86144" lon="0.46021">
        <ele>1758.8693848</ele>
        <time>2010-02-28T11:40:50Z</time>
      </trkpt>
      <trkpt lat="42.86138" lon="0.4602">
        <ele>1782.4216309</ele>
        <time>2010-02-28T11:06:24Z</time>
      </trkpt>
      <trkpt lat="42.86163" lon="0.46023">
        <ele>1762.2338867</ele>
        <time>2010-02-28T10:56:47Z</time>
      </trkpt>
      <trkpt lat="42.86187" lon="0.4605">
        <ele>1777.6149902</ele>
        <time>2010-02-28T10:37:56Z</time>
      </trkpt>
      <trkpt lat="42.86187" lon="0.46051">
        <ele>1770.8857422</ele>
        <time>2010-02-28T10:34:02Z</time>
      </trkpt>
      <trkpt lat="42.86232" lon="0.46011">
        <ele>1764.1564941</ele>
        <time>2010-02-28T10:28:51Z</time>
      </trkpt>
      <trkpt lat="42.86239" lon="0.4599">
        <ele>1764.1564941</ele>
        <time>2010-02-28T10:28:16Z</time>
      </trkpt>
      <trkpt lat="42.86244" lon="0.45982">
        <ele>1759.8305664</ele>
        <time>2010-02-28T10:27:42Z</time>
      </trkpt>
      <trkpt lat="42.86314" lon="0.46041">
        <ele>1741.5656738</ele>
        <time>2010-02-28T10:22:18Z</time>
      </trkpt>
      <trkpt lat="42.86279" lon="0.4605">
        <ele>1737.7202148</ele>
        <time>2010-02-28T10:20:15Z</time>
      </trkpt>
      <trkpt lat="42.86272" lon="0.46073">
        <ele>1733.3942871</ele>
        <time>2010-02-28T10:19:07Z</time>
      </trkpt>
      <trkpt lat="42.86273" lon="0.46073">
        <ele>1736.2783203</ele>
        <time>2010-02-28T10:19:05Z</time>
      </trkpt>
      <trkpt lat="42.86275" lon="0.46071">
        <ele>1729.0683594</ele>
        <time>2010-02-28T10:19:01Z</time>
      </trkpt>
      <trkpt lat="42.86275" lon="0.46071">
        <ele>1733.3942871</ele>
        <time>2010-02-28T10:19:00Z</time>
      </trkpt>
      <trkpt lat="42.86275" lon="0.4607">
        <ele>1733.875</ele>
        <time>2010-02-28T10:18:58Z</time>
      </trkpt>
      <trkpt lat="42.86276" lon="0.46069">
        <ele>1729.0683594</ele>
        <time>2010-02-28T10:18:55Z</time>
      </trkpt>
      <trkpt lat="42.86276" lon="0.46069">
        <ele>1732.9135742</ele>
        <time>2010-02-28T10:18:54Z</time>
      </trkpt>
      <trkpt lat="42.86277" lon="0.46069">
        <ele>1737.239502</ele>
        <time>2010-02-28T10:18:51Z</time>
      </trkpt>
      <trkpt lat="42.86279" lon="0.46069">
        <ele>1741.0849609</ele>
        <time>2010-02-28T10:18:45Z</time>
      </trkpt>
      <trkpt lat="42.86285" lon="0.46075">
        <ele>1722.3391113</ele>
        <time>2010-02-28T10:16:14Z</time>
      </trkpt>
      <trkpt lat="42.86286" lon="0.46075">
        <ele>1726.6652832</ele>
        <time>2010-02-28T10:16:13Z</time>
      </trkpt>
      <trkpt lat="42.86292" lon="0.46071">
        <ele>1721.3776855</ele>
        <time>2010-02-28T10:15:29Z</time>
      </trkpt>
      <trkpt lat="42.86299" lon="0.46056">
        <ele>1726.1845703</ele>
        <time>2010-02-28T10:14:10Z</time>
      </trkpt>
      <trkpt lat="42.86333" lon="0.46049">
        <ele>1707.4387207</ele>
        <time>2010-02-28T10:11:06Z</time>
      </trkpt>
      <trkpt lat="42.86334" lon="0.46051">
        <ele>1710.8034668</ele>
        <time>2010-02-28T10:11:02Z</time>
      </trkpt>
      <trkpt lat="42.86334" lon="0.46052">
        <ele>1703.5935059</ele>
        <time>2010-02-28T10:11:00Z</time>
      </trkpt>
      <trkpt lat="42.86332" lon="0.46051">
        <ele>1707.9194336</ele>
        <time>2010-02-28T10:10:35Z</time>
      </trkpt>
      <trkpt lat="42.8635" lon="0.46065">
        <ele>1700.2290039</ele>
        <time>2010-02-28T10:08:10Z</time>
      </trkpt>
      <trkpt lat="42.86377" lon="0.46055">
        <ele>1695.9030762</ele>
        <time>2010-02-28T10:06:06Z</time>
      </trkpt>
      <trkpt lat="42.86417" lon="0.46062">
        <ele>1685.3283691</ele>
        <time>2010-02-28T10:04:03Z</time>
      </trkpt>
      <trkpt lat="42.86423" lon="0.46089">
        <ele>1686.7702637</ele>
        <time>2010-02-28T10:02:57Z</time>
      </trkpt>
      <trkpt lat="42.86418" lon="0.46089">
        <ele>1680.5219727</ele>
        <time>2010-02-28T10:02:34Z</time>
      </trkpt>
      <trkpt lat="42.86417" lon="0.46088">
        <ele>1685.3283691</ele>
        <time>2010-02-28T10:02:32Z</time>
      </trkpt>
      <trkpt lat="42.86417" lon="0.46087">
        <ele>1675.7150879</ele>
        <time>2010-02-28T10:02:30Z</time>
      </trkpt>
      <trkpt lat="42.86418" lon="0.46085">
        <ele>1681.0026855</ele>
        <time>2010-02-28T10:02:27Z</time>
      </trkpt>
      <trkpt lat="42.86432" lon="0.46083">
        <ele>1677.6379395</ele>
        <time>2010-02-28T10:01:24Z</time>
      </trkpt>
      <trkpt lat="42.86483" lon="0.46104">
        <ele>1674.2731934</ele>
        <time>2010-02-28T09:52:51Z</time>
      </trkpt>
      <trkpt lat="42.86497" lon="0.46104">
        <ele>1666.5827637</ele>
        <time>2010-02-28T09:52:10Z</time>
      </trkpt>
      <trkpt lat="42.86502" lon="0.4612">
        <ele>1673.3120117</ele>
        <time>2010-02-28T09:51:31Z</time>
      </trkpt>
      <trkpt lat="42.86551" lon="0.46118">
        <ele>1647.3564453</ele>
        <time>2010-02-28T09:45:41Z</time>
      </trkpt>
      <trkpt lat="42.86557" lon="0.46149">
        <ele>1629.5720215</ele>
        <time>2010-02-28T09:43:07Z</time>
      </trkpt>
      <trkpt lat="42.86577" lon="0.46156">
        <ele>1622.8427734</ele>
        <time>2010-02-28T09:41:48Z</time>
      </trkpt>
      <trkpt lat="42.86596" lon="0.46136">
        <ele>1619.4782715</ele>
        <time>2010-02-28T09:40:58Z</time>
      </trkpt>
      <trkpt lat="42.86646" lon="0.46146">
        <ele>1616.1135254</ele>
        <time>2010-02-28T09:33:03Z</time>
      </trkpt>
      <trkpt lat="42.86677" lon="0.46154">
        <ele>1610.8261719</ele>
        <time>2010-02-28T09:31:39Z</time>
      </trkpt>
      <trkpt lat="42.86818" lon="0.46146">
        <ele>1581.5061035</ele>
        <time>2010-02-28T09:19:18Z</time>
      </trkpt>
      <trkpt lat="42.86903" lon="0.4613">
        <ele>1560.8376465</ele>
        <time>2010-02-28T09:15:56Z</time>
      </trkpt>
      <trkpt lat="42.86974" lon="0.46106">
        <ele>1542.5727539</ele>
        <time>2010-02-28T09:12:53Z</time>
      </trkpt>
      <trkpt lat="42.86999" lon="0.46061">
        <ele>1532.9594727</ele>
        <time>2010-02-28T09:11:17Z</time>
      </trkpt>
      <trkpt lat="42.87041" lon="0.46036">
        <ele>1524.7883301</ele>
        <time>2010-02-28T09:09:47Z</time>
      </trkpt>
      <trkpt lat="42.8706" lon="0.46085">
        <ele>1525.7495117</ele>
        <time>2010-02-28T09:04:31Z</time>
      </trkpt>
      <trkpt lat="42.87025" lon="0.46126">
        <ele>1540.1694336</ele>
        <time>2010-02-28T09:02:35Z</time>
      </trkpt>
      <trkpt lat="42.87033" lon="0.4615">
        <ele>1539.6887207</ele>
        <time>2010-02-28T09:01:56Z</time>
      </trkpt>
      <trkpt lat="42.87053" lon="0.46159">
        <ele>1538.2468262</ele>
        <time>2010-02-28T08:59:37Z</time>
      </trkpt>
      <trkpt lat="42.87075" lon="0.46228">
        <ele>1547.8598633</ele>
        <time>2010-02-28T08:45:16Z</time>
      </trkpt>
      <trkpt lat="42.87085" lon="0.46269">
        <ele>1546.8984375</ele>
        <time>2010-02-28T08:42:55Z</time>
      </trkpt>
      <trkpt lat="42.8712" lon="0.46247">
        <ele>1556.5117188</ele>
        <time>2010-02-28T08:29:54Z</time>
      </trkpt>
      <trkpt lat="42.8712" lon="0.46244">
        <ele>1552.6665039</ele>
        <time>2010-02-28T08:29:11Z</time>
      </trkpt>
    </trkseg>
  </trk>
</gpx>